To NAV CANADA Home Page Login to a new session Search on AWWS site Feedback and Comments Disclaimer Vers la page française équivalente Tips FAQ What's new on the site To the Forecasts and Observations / NOTAM section To "File a Flight Plan" website Publications and other links Update of the User's profile FIC Telephone Numbers My Weather Data Folder Route Weather Data Regional Weather Data Local Weather Data To the Forecasts and Observations / NOTAM section
Request Generated 12/04/2016 at 22:24:19 UTC . Weather information available at that time is displayed.

METAR/TAF

EARLTON/EARLTON (TIMISKAMING REGIONAL)/ON    (show WxCam)

METAR CYXR 042200Z AUTO 11010KT 9SM OVC018 M04/M07 A3013 RMK SLP223=
METAR CYXR 042100Z AUTO 11006KT 9SM OVC018 M04/M07 A3016 RMK SLP231=
METAR CYXR 042000Z AUTO 13009KT 9SM OVC018 M05/M07 A3018 RMK SLP239=

TAF CYXR 041741Z 0418/0501 VRB03KT P6SM OVC015 TEMPO 0418/0423 BKN025
FM042300 13008KT P6SM SCT020 TEMPO 0423/0501 BKN020
RMK FCST BASED ON AUTO OBS. NXT FCST WILL BE ISSUED AT 051245Z=
Your time UTC time
Weather data provided by Environment Canada and NAV CANADA